createdAt,value
2023-02-22T00:00:23.121Z,3.83
2023-02-22T00:03:00.106Z,4.20
2023-02-22T00:05:31.674Z,4.72
2023-02-22T00:08:05.204Z,5.35
2023-02-22T00:10:39.912Z,4.05
2023-02-22T00:13:14.774Z,4.05
2023-02-22T00:15:45.030Z,4.10
2023-02-22T00:18:17.449Z,4.97
2023-02-22T00:20:47.898Z,4.43
2023-02-22T00:23:25.513Z,4.75
2023-02-22T00:25:55.638Z,7.63
2023-02-22T00:28:26.093Z,6.32
2023-02-22T00:30:56.500Z,6.88
2023-02-22T00:33:26.771Z,7.22
2023-02-22T00:35:56.934Z,6.47
2023-02-22T00:38:29.954Z,7.15
2023-02-22T00:41:02.493Z,6.43
2023-02-22T00:43:33.342Z,7.05
2023-02-22T00:46:03.865Z,6.47
2023-02-22T00:48:34.152Z,5.47
2023-02-22T00:51:04.405Z,6.78
2023-02-22T00:53:37.224Z,5.43
2023-02-22T00:56:08.151Z,5.03
2023-02-22T00:58:38.400Z,6.10
2023-02-22T01:01:08.639Z,5.72
2023-02-22T01:03:41.371Z,5.00
2023-02-22T01:06:11.838Z,5.35
2023-02-22T01:08:47.255Z,5.07
2023-02-22T01:11:19.380Z,5.55
2023-02-22T01:13:49.938Z,5.15
2023-02-22T01:16:20.124Z,5.97
2023-02-22T01:18:50.531Z,5.70
2023-02-22T01:21:21.057Z,5.35
2023-02-22T01:23:55.222Z,5.15
2023-02-22T01:28:55.385Z,5.20
2023-02-22T01:31:26.134Z,4.53
2023-02-22T01:33:56.286Z,4.60
2023-02-22T01:36:26.368Z,4.07
2023-02-22T01:38:59.179Z,4.47
2023-02-22T01:41:29.462Z,5.20
2023-02-22T01:43:59.728Z,4.85
2023-02-22T01:46:31.724Z,5.07
2023-02-22T01:49:06.168Z,4.90
2023-02-22T01:51:40.284Z,4.80
2023-02-22T01:56:51.273Z,4.55
2023-02-22T01:59:23.634Z,4.30
2023-02-22T02:01:54.023Z,4.47
2023-02-22T02:04:26.477Z,4.50
2023-02-22T02:07:00.598Z,5.05
2023-02-22T02:09:37.522Z,4.95
2023-02-22T02:12:10.683Z,4.68
2023-02-22T02:14:41.884Z,4.35
2023-02-22T02:17:13.751Z,4.18
2023-02-22T02:19:57.125Z,4.28
2023-02-22T02:22:42.804Z,4.00
2023-02-22T02:25:42.796Z,4.38
2023-02-22T02:28:46.057Z,4.20
2023-02-22T02:31:34.766Z,4.18
2023-02-22T02:34:17.734Z,3.60
2023-02-22T02:36:55.599Z,3.42
2023-02-22T02:39:32.299Z,4.53
2023-02-22T02:42:08.929Z,4.82
2023-02-22T02:44:44.477Z,5.32
2023-02-22T02:47:20.782Z,4.18
2023-02-22T02:50:07.851Z,4.97
2023-02-22T02:52:44.729Z,4.88
2023-02-22T02:55:16.397Z,4.97
2023-02-22T02:57:46.775Z,4.78
2023-02-22T03:00:25.127Z,4.35
2023-02-22T03:03:10.490Z,5.18
2023-02-22T03:06:11.802Z,5.32
2023-02-22T03:08:46.572Z,4.85
2023-02-22T03:11:20.937Z,4.60
2023-02-22T03:13:59.128Z,5.60
2023-02-22T03:16:37.374Z,5.40
2023-02-22T03:19:13.876Z,5.20
2023-02-22T03:21:53.344Z,5.32
2023-02-22T03:24:28.656Z,5.07
2023-02-22T03:27:03.407Z,5.18
2023-02-22T03:29:37.601Z,3.75
2023-02-22T03:32:12.189Z,4.85
2023-02-22T03:34:47.671Z,4.97
2023-02-22T03:37:23.614Z,5.80
2023-02-22T03:39:57.279Z,4.63
2023-02-22T03:42:32.661Z,5.60
2023-02-22T03:45:05.856Z,5.78
2023-02-22T03:47:44.408Z,5.10
2023-02-22T03:50:23.009Z,5.07
2023-02-22T03:52:56.543Z,4.75
2023-02-22T03:55:28.953Z,5.05
2023-02-22T03:58:03.424Z,4.95
2023-02-22T04:00:38.860Z,5.03
2023-02-22T04:03:09.116Z,4.47
2023-02-22T04:05:39.474Z,4.63
2023-02-22T04:08:14.411Z,4.95
2023-02-22T04:10:44.655Z,4.88
2023-02-22T04:13:14.883Z,4.80
2023-02-22T04:15:45.367Z,5.68
2023-02-22T04:18:15.706Z,4.78
2023-02-22T04:20:45.879Z,4.47
2023-02-22T04:23:19.270Z,4.75
2023-02-22T04:25:49.572Z,6.07
2023-02-22T04:28:20.011Z,5.45
2023-02-22T04:30:51.698Z,4.80
2023-02-22T04:33:21.978Z,4.75
2023-02-22T04:35:52.170Z,5.35
2023-02-22T04:38:26.152Z,5.10
2023-02-22T04:40:56.946Z,4.85
2023-02-22T04:43:27.299Z,5.45
2023-02-22T04:45:58.686Z,5.28
2023-02-22T04:48:28.988Z,5.30
2023-02-22T04:50:59.262Z,4.80
2023-02-22T04:53:32.219Z,4.80
2023-02-22T04:56:02.607Z,4.38
2023-02-22T04:58:33.130Z,5.03
2023-02-22T05:01:03.946Z,4.38
2023-02-22T05:03:34.191Z,5.95
2023-02-22T05:06:04.492Z,5.00
2023-02-22T05:08:37.419Z,5.15
2023-02-22T05:11:09.855Z,6.00
2023-02-22T05:13:42.620Z,5.65
2023-02-22T05:16:13.123Z,5.22
2023-02-22T05:18:44.298Z,5.40
2023-02-22T05:21:14.748Z,6.15
2023-02-22T05:23:47.731Z,5.63
2023-02-22T05:26:19.170Z,4.82
2023-02-22T05:28:49.470Z,5.25
2023-02-22T05:31:20.422Z,6.32
2023-02-22T05:33:51.319Z,5.63
2023-02-22T05:36:21.800Z,5.43
2023-02-22T05:38:55.789Z,6.03
2023-02-22T05:41:29.127Z,6.25
2023-02-22T05:44:03.160Z,5.53
2023-02-22T05:46:33.492Z,5.40
2023-02-22T05:49:03.691Z,4.65
2023-02-22T05:51:39.214Z,5.60
2023-02-22T05:54:12.085Z,6.05
2023-02-22T05:56:44.656Z,5.15
2023-02-22T05:59:18.475Z,6.90
2023-02-22T06:01:49.153Z,7.13
2023-02-22T06:04:20.297Z,7.80
2023-02-22T06:06:50.577Z,7.80
2023-02-22T06:09:23.391Z,8.75
2023-02-22T06:11:54.571Z,8.15
2023-02-22T06:14:27.295Z,7.68
2023-02-22T06:17:01.099Z,9.52
2023-02-22T06:19:31.666Z,9.97
2023-02-22T06:22:03.132Z,11.77
2023-02-22T06:24:36.490Z,12.30
2023-02-22T06:27:06.886Z,13.13
2023-02-22T06:29:37.139Z,13.73
2023-02-22T06:32:10.821Z,13.02
2023-02-22T06:34:41.196Z,11.57
2023-02-22T06:37:11.646Z,10.48
2023-02-22T06:39:44.553Z,11.88
2023-02-22T06:42:15.039Z,10.68
2023-02-22T06:44:45.298Z,10.90
2023-02-22T06:47:15.897Z,10.43
2023-02-22T06:49:46.464Z,9.98
2023-02-22T06:52:17.666Z,10.32
2023-02-22T06:54:50.511Z,8.50
2023-02-22T06:57:21.343Z,14.38
2023-02-22T06:59:52.224Z,13.15
2023-02-22T07:02:22.428Z,11.05
2023-02-22T07:04:52.750Z,9.50
2023-02-22T07:07:25.798Z,8.90
2023-02-22T07:09:58.904Z,9.27
2023-02-22T07:12:29.402Z,9.10
2023-02-22T07:15:01.591Z,8.00
2023-02-22T07:17:31.938Z,6.68
2023-02-22T07:20:02.169Z,8.25
2023-02-22T07:22:32.433Z,7.68
2023-02-22T07:25:05.772Z,8.30
2023-02-22T07:27:35.975Z,8.90
2023-02-22T07:30:07.478Z,8.77
2023-02-22T07:32:37.884Z,9.45
2023-02-22T07:35:08.535Z,9.85
2023-02-22T07:37:38.706Z,9.98
2023-02-22T07:40:12.858Z,9.43
2023-02-22T07:42:57.422Z,9.77
2023-02-22T07:45:31.551Z,9.55
2023-02-22T07:48:03.289Z,10.90
2023-02-22T07:50:36.082Z,13.38
2023-02-22T07:53:08.835Z,12.32
2023-02-22T07:55:41.616Z,12.40
2023-02-22T07:58:12.172Z,12.52
2023-02-22T08:00:44.246Z,12.25
2023-02-22T08:03:16.539Z,11.55
2023-02-22T08:05:49.762Z,9.10
2023-02-22T08:08:20.543Z,7.13
2023-02-22T08:10:55.075Z,6.55
2023-02-22T08:13:25.905Z,7.25
2023-02-22T08:15:57.023Z,5.75
2023-02-22T08:18:28.548Z,5.75
2023-02-22T08:20:58.736Z,6.10
2023-02-22T08:23:29.696Z,5.38
2023-02-22T08:26:09.575Z,3.92
2023-02-22T08:28:39.902Z,4.80
2023-02-22T08:31:10.807Z,3.85
2023-02-22T08:33:41.698Z,4.18
2023-02-22T08:36:12.670Z,3.70
2023-02-22T08:38:42.917Z,4.22
2023-02-22T08:41:15.981Z,3.85
2023-02-22T08:43:47.426Z,4.50
2023-02-22T08:46:19.423Z,3.58
2023-02-22T08:48:55.994Z,4.05
2023-02-22T08:51:27.741Z,3.35
2023-02-22T08:53:58.424Z,2.78
2023-02-22T08:56:31.305Z,2.42
2023-02-22T08:59:01.525Z,3.00
2023-02-22T09:01:33.631Z,2.35
2023-02-22T09:04:05.303Z,2.95
2023-02-22T09:06:35.792Z,2.75
2023-02-22T09:09:06.216Z,3.45
2023-02-22T09:11:39.182Z,3.05
2023-02-22T09:14:09.337Z,2.63
2023-02-22T09:16:40.053Z,3.25
2023-02-22T09:19:10.453Z,3.15
2023-02-22T09:21:40.611Z,3.17
2023-02-22T09:24:11.647Z,2.17
2023-02-22T09:26:54.213Z,3.08
2023-02-22T09:29:25.637Z,3.35
2023-02-22T09:31:57.755Z,3.40
2023-02-22T09:34:35.410Z,3.35
2023-02-22T09:37:08.881Z,3.30
2023-02-22T09:39:40.475Z,3.47
2023-02-22T09:42:19.045Z,3.47
2023-02-22T09:44:54.491Z,3.10
2023-02-22T09:47:32.668Z,2.67
2023-02-22T09:50:06.380Z,3.53
2023-02-22T09:52:42.827Z,3.15
2023-02-22T09:55:25.868Z,3.50
2023-02-22T09:58:01.685Z,2.47
2023-02-22T10:00:35.194Z,3.50
2023-02-22T10:03:21.571Z,3.80
2023-02-22T10:05:57.336Z,3.38
2023-02-22T10:08:31.702Z,3.35
2023-02-22T10:11:16.197Z,3.33
2023-02-22T10:13:58.990Z,3.53
2023-02-22T10:16:34.984Z,3.22
2023-02-22T10:19:23.163Z,3.30
2023-02-22T10:22:14.694Z,3.47
2023-02-22T10:24:56.693Z,3.97
2023-02-22T10:27:35.052Z,4.35
2023-02-22T10:30:24.591Z,3.35
2023-02-22T10:33:00.978Z,3.70
2023-02-22T10:35:35.833Z,3.42
2023-02-22T10:38:16.802Z,3.63
2023-02-22T10:40:53.277Z,3.15
2023-02-22T10:43:24.437Z,3.38
2023-02-22T10:46:01.276Z,3.33
2023-02-22T10:48:35.615Z,3.92
2023-02-22T10:51:09.571Z,3.10
2023-02-22T10:53:41.360Z,4.07
2023-02-22T10:56:21.452Z,3.20
2023-02-22T10:58:55.111Z,3.70
2023-02-22T11:01:38.141Z,4.00
2023-02-22T11:04:16.601Z,3.95
2023-02-22T11:06:49.567Z,3.83
2023-02-22T11:09:22.702Z,3.80
2023-02-22T11:12:10.068Z,3.03
2023-02-22T11:14:40.467Z,4.03
2023-02-22T11:17:17.735Z,4.00
2023-02-22T11:19:53.599Z,3.38
2023-02-22T11:22:29.465Z,4.35
2023-02-22T11:25:04.077Z,3.47
2023-02-22T11:27:43.403Z,3.55
2023-02-22T11:30:25.929Z,3.90
2023-02-22T11:33:02.140Z,3.65
2023-02-22T11:35:42.223Z,3.70
2023-02-22T11:38:16.289Z,3.17
2023-02-22T11:40:48.729Z,3.97
2023-02-22T11:43:21.065Z,4.03
2023-02-22T11:46:05.117Z,3.45
2023-02-22T11:48:41.903Z,3.75
2023-02-22T11:51:37.045Z,2.30
2023-02-22T11:54:31.282Z,2.88
2023-02-22T11:57:12.116Z,3.33
2023-02-22T11:59:55.869Z,3.17
2023-02-22T12:02:57.382Z,3.45
2023-02-22T12:05:43.574Z,3.03
2023-02-22T12:08:25.455Z,2.85
2023-02-22T12:11:06.515Z,2.35
2023-02-22T12:13:49.235Z,3.25
2023-02-22T12:16:30.033Z,2.85
2023-02-22T12:19:14.327Z,3.33
2023-02-22T12:21:55.858Z,3.28
2023-02-22T12:24:28.917Z,3.17
2023-02-22T12:27:05.836Z,3.20
2023-02-22T12:29:42.318Z,3.05
2023-02-22T12:32:17.716Z,3.33
2023-02-22T12:34:51.390Z,3.95
2023-02-22T12:37:28.102Z,3.20
2023-02-22T12:40:09.645Z,3.35
2023-02-22T12:43:03.613Z,3.00
2023-02-22T12:45:39.999Z,5.30
2023-02-22T12:48:28.190Z,3.90
2023-02-22T12:51:02.900Z,3.60
2023-02-22T12:53:40.307Z,4.22
2023-02-22T12:56:22.444Z,3.83
2023-02-22T12:58:58.908Z,3.55
2023-02-22T13:01:33.315Z,3.30
2023-02-22T13:04:19.740Z,3.50
2023-02-22T13:07:03.019Z,3.35
2023-02-22T13:09:58.132Z,3.22
2023-02-22T13:12:38.752Z,4.13
2023-02-22T13:15:17.539Z,4.35
2023-02-22T13:17:56.332Z,3.58
2023-02-22T13:20:31.723Z,3.15
2023-02-22T13:23:05.882Z,3.65
2023-02-22T13:25:45.327Z,3.15
2023-02-22T13:28:32.321Z,3.65
2023-02-22T13:31:40.037Z,4.07
2023-02-22T13:34:42.144Z,3.22
2023-02-22T13:37:35.735Z,3.40
2023-02-22T13:40:24.002Z,3.90
2023-02-22T13:43:18.486Z,3.38
2023-02-22T13:46:18.089Z,3.33
2023-02-22T13:49:25.718Z,4.20
2023-02-22T13:51:59.683Z,3.50
2023-02-22T13:59:40.475Z,3.40
2023-02-22T14:02:33.471Z,3.13
2023-02-22T14:05:39.051Z,4.20
2023-02-22T14:08:13.096Z,3.20
2023-02-22T14:10:52.791Z,3.05
2023-02-22T14:13:26.855Z,3.83
2023-02-22T14:16:25.957Z,3.17
2023-02-22T14:19:06.740Z,3.35
2023-02-22T14:21:39.727Z,3.28
2023-02-22T14:24:13.049Z,3.08
2023-02-22T14:26:59.208Z,3.60
2023-02-22T14:29:30.140Z,3.60
2023-02-22T14:32:07.767Z,3.30
2023-02-22T14:34:54.712Z,3.28
2023-02-22T14:37:31.452Z,3.70
2023-02-22T14:40:12.984Z,3.72
2023-02-22T14:42:48.688Z,3.70
2023-02-22T14:45:28.572Z,2.60
2023-02-22T14:48:11.872Z,3.35
2023-02-22T14:50:50.868Z,3.40
2023-02-22T14:53:36.805Z,3.30
2023-02-22T14:56:11.904Z,3.30
2023-02-22T14:58:46.908Z,2.58
2023-02-22T15:01:33.927Z,2.97
2023-02-22T15:04:23.573Z,2.88
2023-02-22T15:06:54.134Z,4.30
2023-02-22T15:09:30.673Z,2.30
2023-02-22T15:12:18.370Z,3.17
2023-02-22T15:14:49.909Z,3.05
2023-02-22T15:17:24.840Z,3.40
2023-02-22T15:19:56.855Z,3.38
2023-02-22T15:22:30.097Z,3.40
2023-02-22T15:25:05.626Z,3.30
2023-02-22T15:27:37.447Z,4.43
2023-02-22T15:30:23.192Z,2.90
2023-02-22T15:33:04.256Z,2.80
2023-02-22T15:35:36.308Z,3.17
2023-02-22T15:38:09.037Z,2.78
2023-02-22T15:40:43.496Z,3.15
2023-02-22T15:43:24.406Z,3.25
2023-02-22T15:45:55.583Z,3.45
2023-02-22T15:48:26.591Z,3.10
2023-02-22T15:51:10.782Z,3.45
2023-02-22T15:53:46.870Z,3.47
2023-02-22T15:56:22.275Z,3.20
2023-02-22T15:58:53.048Z,2.60
2023-02-22T16:01:23.398Z,3.25
2023-02-22T16:03:55.975Z,2.67
2023-02-22T16:06:33.601Z,3.72
2023-02-22T16:09:10.909Z,3.70
2023-02-22T16:11:46.094Z,3.22
2023-02-22T16:14:31.581Z,3.42
2023-02-22T16:17:31.018Z,3.45
2023-02-22T16:20:05.626Z,4.38
2023-02-22T16:25:27.588Z,4.10
2023-02-22T16:28:06.262Z,4.20
2023-02-22T16:30:38.202Z,4.10
2023-02-22T16:33:13.756Z,4.57
2023-02-22T16:35:52.115Z,4.75
2023-02-22T16:38:23.269Z,4.32
2023-02-22T16:40:55.610Z,4.03
2023-02-22T16:43:31.726Z,4.88
2023-02-22T16:46:01.972Z,4.55
2023-02-22T16:48:33.840Z,3.85
2023-02-22T16:51:08.723Z,5.13
2023-02-22T16:53:40.449Z,4.07
2023-02-22T16:56:13.353Z,5.38
2023-02-22T16:58:47.176Z,4.57
2023-02-22T17:01:17.369Z,4.97
2023-02-22T17:03:48.787Z,4.90
2023-02-22T17:06:19.262Z,5.43
2023-02-22T17:08:52.094Z,5.22
2023-02-22T17:11:22.619Z,4.75
2023-02-22T17:13:55.579Z,5.00
2023-02-22T17:16:26.158Z,5.53
2023-02-22T17:18:56.430Z,5.00
2023-02-22T17:21:27.023Z,4.32
2023-02-22T17:23:57.253Z,5.43
2023-02-22T17:26:28.418Z,5.90
2023-02-22T17:29:01.512Z,4.78
2023-02-22T17:31:34.029Z,4.30
2023-02-22T17:34:06.591Z,4.40
2023-02-22T17:36:38.922Z,5.22
2023-02-22T17:39:10.709Z,4.80
2023-02-22T17:41:41.328Z,4.70
2023-02-22T17:44:14.431Z,5.00
2023-02-22T17:46:44.728Z,4.50
2023-02-22T17:49:15.511Z,4.00
2023-02-22T17:51:49.585Z,4.72
2023-02-22T17:54:20.833Z,4.50
2023-02-22T17:56:51.453Z,4.78
2023-02-22T17:59:24.588Z,4.68
2023-02-22T18:01:55.595Z,4.53
2023-02-22T18:04:25.924Z,4.18
2023-02-22T18:06:56.345Z,5.28
2023-02-22T18:09:27.073Z,4.90
2023-02-22T18:11:57.845Z,5.03
2023-02-22T18:14:31.146Z,5.53
2023-02-22T18:17:02.272Z,5.67
2023-02-22T18:19:32.769Z,4.55
2023-02-22T18:22:03.879Z,4.75
2023-02-22T18:24:36.367Z,4.53
2023-02-22T18:27:11.988Z,4.88
2023-02-22T18:29:45.031Z,4.57
2023-02-22T18:32:15.659Z,5.45
2023-02-22T18:34:46.282Z,5.57
2023-02-22T18:37:20.644Z,5.55
2023-02-22T18:39:51.887Z,6.15
2023-02-22T18:42:23.595Z,12.73
2023-02-22T18:45:00.857Z,11.25
2023-02-22T18:47:31.383Z,12.40
2023-02-22T18:50:03.639Z,12.75
2023-02-22T18:52:44.941Z,15.65
2023-02-22T18:55:17.379Z,17.27
2023-02-22T18:57:49.009Z,16.65
2023-02-22T19:00:28.782Z,17.27
2023-02-22T19:02:59.982Z,16.98
2023-02-22T19:05:33.286Z,19.48
2023-02-22T19:08:04.554Z,17.35
2023-02-22T19:10:35.133Z,14.82
2023-02-22T19:13:10.799Z,13.73
2023-02-22T19:15:43.982Z,16.40
2023-02-22T19:18:14.610Z,14.93
2023-02-22T19:20:47.557Z,16.88
2023-02-22T19:23:17.815Z,16.45
2023-02-22T19:25:50.531Z,15.85
2023-02-22T19:28:21.490Z,18.25
2023-02-22T19:30:55.170Z,18.52
2023-02-22T19:33:26.681Z,17.92
2023-02-22T19:36:02.515Z,15.95
2023-02-22T19:38:33.028Z,15.88
2023-02-22T19:41:10.195Z,16.00
2023-02-22T19:43:45.406Z,14.77
2023-02-22T19:46:18.796Z,16.05
2023-02-22T19:51:24.558Z,16.58
2023-02-22T19:53:56.055Z,15.90
2023-02-22T19:56:28.640Z,16.70
2023-02-22T19:59:01.473Z,16.42
2023-02-22T20:01:36.827Z,18.03
2023-02-22T20:04:09.265Z,19.45
2023-02-22T20:06:41.932Z,18.75
2023-02-22T20:09:16.092Z,17.83
2023-02-22T20:11:46.754Z,17.25
2023-02-22T20:14:20.492Z,19.85
2023-02-22T20:16:53.737Z,18.17
2023-02-22T20:19:26.839Z,18.42
2023-02-22T20:22:00.442Z,17.27
2023-02-22T20:24:31.433Z,18.60
2023-02-22T20:27:01.811Z,16.77
2023-02-22T20:29:34.533Z,15.77
2023-02-22T20:32:09.102Z,15.73
2023-02-22T20:34:39.738Z,16.13
2023-02-22T20:37:10.604Z,15.30
2023-02-22T20:39:40.943Z,15.93
2023-02-22T20:42:12.007Z,14.48
2023-02-22T20:44:45.209Z,13.77
2023-02-22T20:47:18.898Z,13.90
2023-02-22T20:49:49.941Z,13.98
2023-02-22T20:52:20.500Z,13.32
2023-02-22T20:54:51.005Z,13.82
2023-02-22T20:57:21.252Z,13.70
2023-02-22T20:59:51.982Z,12.70
2023-02-22T21:02:25.128Z,12.38
2023-02-22T21:04:55.719Z,13.17
2023-02-22T21:07:26.270Z,12.57
2023-02-22T21:09:56.872Z,12.52
2023-02-22T21:12:28.537Z,11.20
2023-02-22T21:14:58.944Z,11.77
2023-02-22T21:17:34.177Z,11.65
2023-02-22T21:20:10.453Z,12.13
2023-02-22T21:22:42.574Z,12.60
2023-02-22T21:25:16.795Z,12.93
2023-02-22T21:27:47.884Z,13.32
2023-02-22T21:30:19.922Z,14.13
2023-02-22T21:32:56.381Z,12.90
2023-02-22T21:35:27.487Z,13.40
2023-02-22T21:37:57.820Z,13.85
2023-02-22T21:40:29.146Z,12.10
2023-02-22T21:42:59.535Z,12.95
2023-02-22T21:45:30.051Z,10.27
2023-02-22T21:48:02.996Z,10.73
2023-02-22T21:50:36.905Z,11.32
2023-02-22T21:53:07.861Z,10.30
2023-02-22T21:55:38.288Z,9.95
2023-02-22T21:58:09.662Z,9.55
2023-02-22T22:00:42.881Z,10.90
2023-02-22T22:03:20.484Z,9.38
2023-02-22T22:05:57.105Z,9.27
2023-02-22T22:08:28.215Z,8.90
2023-02-22T22:10:58.933Z,8.90
2023-02-22T22:13:30.755Z,10.40
2023-02-22T22:16:08.656Z,10.13
2023-02-22T22:18:42.598Z,10.70
2023-02-22T22:23:48.381Z,8.57
2023-02-22T22:26:21.337Z,9.80
2023-02-22T22:28:53.622Z,8.80
2023-02-22T22:31:28.562Z,8.88
2023-02-22T22:34:01.626Z,10.15
2023-02-22T22:36:31.847Z,10.23
2023-02-22T22:39:01.968Z,8.75
2023-02-22T22:41:34.020Z,9.80
2023-02-22T22:44:06.164Z,8.48
2023-02-22T22:46:36.535Z,9.40
2023-02-22T22:49:10.649Z,9.63
2023-02-22T22:51:43.381Z,9.40
2023-02-22T22:54:13.827Z,9.07
2023-02-22T22:56:44.161Z,7.65
2023-02-22T22:59:18.032Z,7.50
2023-02-22T23:01:48.634Z,6.53
2023-02-22T23:04:24.314Z,6.78
2023-02-22T23:06:57.102Z,7.57
2023-02-22T23:09:29.809Z,5.85
2023-02-22T23:12:09.085Z,6.80
2023-02-22T23:14:44.368Z,6.45
2023-02-22T23:17:26.952Z,6.25
2023-02-22T23:20:00.322Z,4.70
2023-02-22T23:22:30.759Z,5.93
2023-02-22T23:25:02.162Z,5.70
2023-02-22T23:27:32.427Z,5.38
2023-02-22T23:30:02.911Z,5.63
2023-02-22T23:32:35.238Z,6.97
2023-02-22T23:35:08.913Z,5.13
2023-02-22T23:37:40.006Z,6.57
2023-02-22T23:40:17.341Z,5.80
2023-02-22T23:42:53.906Z,5.65
2023-02-22T23:45:25.622Z,5.65
2023-02-22T23:47:57.258Z,5.60
2023-02-22T23:50:36.401Z,5.70
2023-02-22T23:53:06.810Z,6.18
2023-02-22T23:55:39.242Z,5.97
2023-02-22T23:58:09.435Z,6.43
